sensor_id;sensor_type;location;lat;lon;timestamp;P1;durP1;ratioP1;P2;durP2;ratioP2
68050;SDS011;54839;51.364;7.246;2022-12-26T00:00:15;6.20;;;5.60;;
68050;SDS011;54839;51.364;7.246;2022-12-26T00:02:40;6.30;;;5.60;;
68050;SDS011;54839;51.364;7.246;2022-12-26T00:05:06;6.33;;;5.60;;
68050;SDS011;54839;51.364;7.246;2022-12-26T00:07:32;6.13;;;4.80;;
68050;SDS011;54839;51.364;7.246;2022-12-26T00:09:58;6.47;;;5.80;;
68050;SDS011;54839;51.364;7.246;2022-12-26T00:12:23;4.90;;;4.50;;
68050;SDS011;54839;51.364;7.246;2022-12-26T00:14:49;5.40;;;4.60;;
68050;SDS011;54839;51.364;7.246;2022-12-26T00:17:15;6.30;;;5.70;;
68050;SDS011;54839;51.364;7.246;2022-12-26T00:19:40;6.83;;;6.00;;
68050;SDS011;54839;51.364;7.246;2022-12-26T00:22:07;5.63;;;4.90;;
68050;SDS011;54839;51.364;7.246;2022-12-26T00:24:32;6.20;;;4.27;;
68050;SDS011;54839;51.364;7.246;2022-12-26T00:26:58;6.00;;;5.40;;
68050;SDS011;54839;51.364;7.246;2022-12-26T00:29:24;7.90;;;5.67;;
68050;SDS011;54839;51.364;7.246;2022-12-26T00:31:49;4.90;;;4.10;;
68050;SDS011;54839;51.364;7.246;2022-12-26T00:34:15;7.43;;;6.00;;
68050;SDS011;54839;51.364;7.246;2022-12-26T00:36:41;8.40;;;5.60;;
68050;SDS011;54839;51.364;7.246;2022-12-26T00:39:06;8.77;;;5.80;;
68050;SDS011;54839;51.364;7.246;2022-12-26T00:41:32;6.13;;;5.00;;
68050;SDS011;54839;51.364;7.246;2022-12-26T00:43:58;5.10;;;4.10;;
68050;SDS011;54839;51.364;7.246;2022-12-26T00:46:24;5.27;;;4.40;;
68050;SDS011;54839;51.364;7.246;2022-12-26T00:48:50;7.63;;;6.30;;
68050;SDS011;54839;51.364;7.246;2022-12-26T00:51:16;7.47;;;5.53;;
68050;SDS011;54839;51.364;7.246;2022-12-26T00:53:42;7.00;;;5.10;;
68050;SDS011;54839;51.364;7.246;2022-12-26T00:56:08;7.00;;;5.03;;
68050;SDS011;54839;51.364;7.246;2022-12-26T00:58:34;8.57;;;4.90;;
68050;SDS011;54839;51.364;7.246;2022-12-26T01:01:11;6.00;;;5.07;;
68050;SDS011;54839;51.364;7.246;2022-12-26T01:03:44;4.67;;;4.07;;
68050;SDS011;54839;51.364;7.246;2022-12-26T01:06:11;4.70;;;3.97;;
68050;SDS011;54839;51.364;7.246;2022-12-26T01:08:38;6.20;;;4.17;;
68050;SDS011;54839;51.364;7.246;2022-12-26T01:11:04;4.20;;;3.47;;
68050;SDS011;54839;51.364;7.246;2022-12-26T01:13:32;4.40;;;3.57;;
68050;SDS011;54839;51.364;7.246;2022-12-26T01:15:59;3.40;;;3.10;;
68050;SDS011;54839;51.364;7.246;2022-12-26T01:18:24;3.60;;;2.87;;
68050;SDS011;54839;51.364;7.246;2022-12-26T01:20:50;6.30;;;3.57;;
68050;SDS011;54839;51.364;7.246;2022-12-26T01:23:16;4.73;;;3.70;;
68050;SDS011;54839;51.364;7.246;2022-12-26T01:25:42;6.43;;;4.40;;
68050;SDS011;54839;51.364;7.246;2022-12-26T01:28:07;8.83;;;4.80;;
68050;SDS011;54839;51.364;7.246;2022-12-26T01:30:33;5.30;;;3.10;;
68050;SDS011;54839;51.364;7.246;2022-12-26T01:32:59;4.13;;;3.20;;
68050;SDS011;54839;51.364;7.246;2022-12-26T01:35:24;6.13;;;3.97;;
68050;SDS011;54839;51.364;7.246;2022-12-26T01:37:50;5.50;;;4.27;;
68050;SDS011;54839;51.364;7.246;2022-12-26T01:40:15;4.20;;;3.80;;
68050;SDS011;54839;51.364;7.246;2022-12-26T01:42:41;5.47;;;3.27;;
68050;SDS011;54839;51.364;7.246;2022-12-26T01:47:50;7.10;;;4.80;;
68050;SDS011;54839;51.364;7.246;2022-12-26T01:50:23;5.07;;;4.67;;
68050;SDS011;54839;51.364;7.246;2022-12-26T01:52:57;6.60;;;4.87;;
68050;SDS011;54839;51.364;7.246;2022-12-26T01:55:26;6.20;;;4.70;;
68050;SDS011;54839;51.364;7.246;2022-12-26T01:57:56;6.57;;;4.63;;
68050;SDS011;54839;51.364;7.246;2022-12-26T02:00:31;5.33;;;4.83;;
68050;SDS011;54839;51.364;7.246;2022-12-26T02:02:58;7.07;;;5.50;;
68050;SDS011;54839;51.364;7.246;2022-12-26T02:05:43;6.20;;;5.60;;
68050;SDS011;54839;51.364;7.246;2022-12-26T02:08:17;6.67;;;5.97;;
68050;SDS011;54839;51.364;7.246;2022-12-26T02:13:39;7.37;;;5.53;;
68050;SDS011;54839;51.364;7.246;2022-12-26T02:16:06;9.30;;;6.10;;
68050;SDS011;54839;51.364;7.246;2022-12-26T02:18:35;6.93;;;5.80;;
68050;SDS011;54839;51.364;7.246;2022-12-26T02:27:14;8.63;;;5.93;;
68050;SDS011;54839;51.364;7.246;2022-12-26T02:37:48;5.70;;;5.10;;
68050;SDS011;54839;51.364;7.246;2022-12-26T02:43:16;5.27;;;4.77;;
68050;SDS011;54839;51.364;7.246;2022-12-26T02:46:02;7.50;;;5.80;;
68050;SDS011;54839;51.364;7.246;2022-12-26T02:49:13;7.50;;;6.43;;
68050;SDS011;54839;51.364;7.246;2022-12-26T02:54:57;10.67;;;6.37;;
68050;SDS011;54839;51.364;7.246;2022-12-26T02:57:55;6.37;;;5.43;;
68050;SDS011;54839;51.364;7.246;2022-12-26T03:00:47;7.10;;;5.20;;
68050;SDS011;54839;51.364;7.246;2022-12-26T03:03:42;8.87;;;6.00;;
68050;SDS011;54839;51.364;7.246;2022-12-26T03:06:30;7.57;;;6.73;;
68050;SDS011;54839;51.364;7.246;2022-12-26T03:09:26;7.27;;;5.30;;
68050;SDS011;54839;51.364;7.246;2022-12-26T03:15:03;7.33;;;4.43;;
68050;SDS011;54839;51.364;7.246;2022-12-26T03:17:34;8.50;;;6.20;;
68050;SDS011;54839;51.364;7.246;2022-12-26T03:20:04;8.20;;;4.57;;
68050;SDS011;54839;51.364;7.246;2022-12-26T03:22:45;6.53;;;5.07;;
68050;SDS011;54839;51.364;7.246;2022-12-26T03:28:20;5.87;;;5.37;;
68050;SDS011;54839;51.364;7.246;2022-12-26T03:30:46;6.27;;;5.67;;
68050;SDS011;54839;51.364;7.246;2022-12-26T03:33:22;6.40;;;5.77;;
68050;SDS011;54839;51.364;7.246;2022-12-26T03:36:15;6.67;;;5.00;;
68050;SDS011;54839;51.364;7.246;2022-12-26T03:41:59;7.90;;;5.33;;
68050;SDS011;54839;51.364;7.246;2022-12-26T03:44:51;6.07;;;5.27;;
68050;SDS011;54839;51.364;7.246;2022-12-26T03:50:36;5.07;;;4.67;;
68050;SDS011;54839;51.364;7.246;2022-12-26T03:53:30;5.40;;;3.87;;
68050;SDS011;54839;51.364;7.246;2022-12-26T03:56:32;6.47;;;3.63;;
68050;SDS011;54839;51.364;7.246;2022-12-26T03:59:56;3.80;;;3.10;;
68050;SDS011;54839;51.364;7.246;2022-12-26T04:02:36;2.97;;;2.67;;
68050;SDS011;54839;51.364;7.246;2022-12-26T04:05:22;3.20;;;2.83;;
68050;SDS011;54839;51.364;7.246;2022-12-26T04:08:12;4.70;;;2.77;;
68050;SDS011;54839;51.364;7.246;2022-12-26T04:11:00;3.90;;;1.33;;
68050;SDS011;54839;51.364;7.246;2022-12-26T04:13:53;2.80;;;2.20;;
68050;SDS011;54839;51.364;7.246;2022-12-26T04:16:43;2.70;;;2.50;;
68050;SDS011;54839;51.364;7.246;2022-12-26T04:22:41;1.60;;;1.50;;
68050;SDS011;54839;51.364;7.246;2022-12-26T04:25:48;2.60;;;2.40;;
68050;SDS011;54839;51.364;7.246;2022-12-26T04:28:42;2.87;;;2.17;;
68050;SDS011;54839;51.364;7.246;2022-12-26T04:31:28;2.40;;;2.20;;
68050;SDS011;54839;51.364;7.246;2022-12-26T04:34:39;2.57;;;2.20;;
68050;SDS011;54839;51.364;7.246;2022-12-26T04:37:27;2.10;;;1.97;;
68050;SDS011;54839;51.364;7.246;2022-12-26T04:40:14;2.03;;;1.83;;
68050;SDS011;54839;51.364;7.246;2022-12-26T04:43:02;2.37;;;2.13;;
68050;SDS011;54839;51.364;7.246;2022-12-26T04:45:49;2.00;;;1.80;;
68050;SDS011;54839;51.364;7.246;2022-12-26T04:48:15;2.60;;;2.40;;
68050;SDS011;54839;51.364;7.246;2022-12-26T04:51:00;2.30;;;2.20;;
68050;SDS011;54839;51.364;7.246;2022-12-26T04:53:25;4.20;;;3.80;;
68050;SDS011;54839;51.364;7.246;2022-12-26T04:55:51;2.43;;;2.33;;
68050;SDS011;54839;51.364;7.246;2022-12-26T04:58:17;3.00;;;2.80;;
68050;SDS011;54839;51.364;7.246;2022-12-26T05:00:42;3.13;;;2.90;;
68050;SDS011;54839;51.364;7.246;2022-12-26T05:03:12;1.90;;;1.80;;
68050;SDS011;54839;51.364;7.246;2022-12-26T05:05:56;3.37;;;3.07;;
68050;SDS011;54839;51.364;7.246;2022-12-26T05:08:41;4.33;;;3.47;;
68050;SDS011;54839;51.364;7.246;2022-12-26T05:11:28;4.93;;;3.70;;
68050;SDS011;54839;51.364;7.246;2022-12-26T05:13:55;4.90;;;4.10;;
68050;SDS011;54839;51.364;7.246;2022-12-26T05:16:23;8.50;;;4.53;;
68050;SDS011;54839;51.364;7.246;2022-12-26T05:19:11;4.50;;;4.10;;
68050;SDS011;54839;51.364;7.246;2022-12-26T05:21:57;4.40;;;4.00;;
68050;SDS011;54839;51.364;7.246;2022-12-26T05:24:42;4.33;;;3.93;;
68050;SDS011;54839;51.364;7.246;2022-12-26T05:27:29;4.33;;;3.93;;
68050;SDS011;54839;51.364;7.246;2022-12-26T05:30:20;3.90;;;3.60;;
68050;SDS011;54839;51.364;7.246;2022-12-26T05:32:46;4.13;;;3.80;;
68050;SDS011;54839;51.364;7.246;2022-12-26T05:35:31;4.70;;;3.77;;
68050;SDS011;54839;51.364;7.246;2022-12-26T05:37:58;3.40;;;2.80;;
68050;SDS011;54839;51.364;7.246;2022-12-26T05:40:23;4.30;;;4.00;;
68050;SDS011;54839;51.364;7.246;2022-12-26T05:42:49;4.23;;;3.83;;
68050;SDS011;54839;51.364;7.246;2022-12-26T05:45:15;4.10;;;3.70;;
68050;SDS011;54839;51.364;7.246;2022-12-26T05:47:40;4.87;;;4.40;;
68050;SDS011;54839;51.364;7.246;2022-12-26T05:50:06;4.53;;;4.13;;
68050;SDS011;54839;51.364;7.246;2022-12-26T05:52:32;4.47;;;4.07;;
68050;SDS011;54839;51.364;7.246;2022-12-26T05:54:58;4.60;;;3.90;;
68050;SDS011;54839;51.364;7.246;2022-12-26T05:57:23;5.60;;;3.80;;
68050;SDS011;54839;51.364;7.246;2022-12-26T05:59:49;4.53;;;4.13;;
68050;SDS011;54839;51.364;7.246;2022-12-26T06:02:14;5.63;;;4.10;;
68050;SDS011;54839;51.364;7.246;2022-12-26T06:04:40;4.77;;;3.70;;
68050;SDS011;54839;51.364;7.246;2022-12-26T06:07:06;4.80;;;4.27;;
68050;SDS011;54839;51.364;7.246;2022-12-26T06:09:31;4.70;;;3.43;;
68050;SDS011;54839;51.364;7.246;2022-12-26T06:11:57;6.37;;;5.77;;
68050;SDS011;54839;51.364;7.246;2022-12-26T06:14:23;12.10;;;5.00;;
68050;SDS011;54839;51.364;7.246;2022-12-26T06:16:49;5.93;;;4.97;;
68050;SDS011;54839;51.364;7.246;2022-12-26T06:19:15;5.20;;;4.70;;
68050;SDS011;54839;51.364;7.246;2022-12-26T06:21:41;5.27;;;4.57;;
68050;SDS011;54839;51.364;7.246;2022-12-26T06:24:06;6.33;;;5.70;;
68050;SDS011;54839;51.364;7.246;2022-12-26T06:26:32;6.30;;;5.80;;
68050;SDS011;54839;51.364;7.246;2022-12-26T06:28:58;5.73;;;5.23;;
68050;SDS011;54839;51.364;7.246;2022-12-26T06:31:23;6.70;;;6.00;;
68050;SDS011;54839;51.364;7.246;2022-12-26T06:33:50;6.20;;;5.70;;
68050;SDS011;54839;51.364;7.246;2022-12-26T06:36:20;6.83;;;5.30;;
68050;SDS011;54839;51.364;7.246;2022-12-26T06:38:47;6.13;;;5.20;;
68050;SDS011;54839;51.364;7.246;2022-12-26T06:41:14;7.57;;;6.70;;
68050;SDS011;54839;51.364;7.246;2022-12-26T06:43:41;7.90;;;6.57;;
68050;SDS011;54839;51.364;7.246;2022-12-26T06:46:09;7.27;;;6.60;;
68050;SDS011;54839;51.364;7.246;2022-12-26T06:48:37;6.90;;;6.20;;
68050;SDS011;54839;51.364;7.246;2022-12-26T06:51:07;6.40;;;5.80;;
68050;SDS011;54839;51.364;7.246;2022-12-26T06:53:38;6.70;;;6.00;;
68050;SDS011;54839;51.364;7.246;2022-12-26T06:56:14;10.30;;;5.07;;
68050;SDS011;54839;51.364;7.246;2022-12-26T06:58:40;6.80;;;5.50;;
68050;SDS011;54839;51.364;7.246;2022-12-26T07:01:08;4.17;;;3.43;;
68050;SDS011;54839;51.364;7.246;2022-12-26T07:03:41;5.70;;;5.07;;
68050;SDS011;54839;51.364;7.246;2022-12-26T07:08:57;5.90;;;5.30;;
68050;SDS011;54839;51.364;7.246;2022-12-26T07:11:26;4.47;;;4.07;;
68050;SDS011;54839;51.364;7.246;2022-12-26T07:13:53;5.83;;;4.73;;
68050;SDS011;54839;51.364;7.246;2022-12-26T07:16:19;5.30;;;4.80;;
68050;SDS011;54839;51.364;7.246;2022-12-26T07:18:44;4.20;;;3.90;;
68050;SDS011;54839;51.364;7.246;2022-12-26T07:21:11;5.20;;;4.70;;
68050;SDS011;54839;51.364;7.246;2022-12-26T07:23:38;5.40;;;5.00;;
68050;SDS011;54839;51.364;7.246;2022-12-26T07:26:05;7.07;;;4.70;;
68050;SDS011;54839;51.364;7.246;2022-12-26T07:28:31;6.10;;;5.60;;
68050;SDS011;54839;51.364;7.246;2022-12-26T07:30:57;3.53;;;3.23;;
68050;SDS011;54839;51.364;7.246;2022-12-26T07:33:25;6.27;;;5.43;;
68050;SDS011;54839;51.364;7.246;2022-12-26T07:35:52;8.20;;;5.60;;
68050;SDS011;54839;51.364;7.246;2022-12-26T07:38:18;4.43;;;4.03;;
68050;SDS011;54839;51.364;7.246;2022-12-26T07:40:44;5.50;;;4.97;;
68050;SDS011;54839;51.364;7.246;2022-12-26T07:43:10;6.63;;;5.40;;
68050;SDS011;54839;51.364;7.246;2022-12-26T07:45:35;4.70;;;4.20;;
68050;SDS011;54839;51.364;7.246;2022-12-26T07:48:01;3.77;;;3.37;;
68050;SDS011;54839;51.364;7.246;2022-12-26T07:50:27;4.23;;;3.53;;
68050;SDS011;54839;51.364;7.246;2022-12-26T07:52:53;4.77;;;4.37;;
68050;SDS011;54839;51.364;7.246;2022-12-26T07:55:19;5.70;;;4.93;;
68050;SDS011;54839;51.364;7.246;2022-12-26T07:57:50;4.60;;;4.23;;
68050;SDS011;54839;51.364;7.246;2022-12-26T08:00:16;5.90;;;5.23;;
68050;SDS011;54839;51.364;7.246;2022-12-26T08:02:43;4.33;;;3.80;;
68050;SDS011;54839;51.364;7.246;2022-12-26T08:05:11;7.80;;;4.00;;
68050;SDS011;54839;51.364;7.246;2022-12-26T08:07:36;4.70;;;4.20;;
68050;SDS011;54839;51.364;7.246;2022-12-26T08:10:03;3.93;;;3.63;;
68050;SDS011;54839;51.364;7.246;2022-12-26T08:12:30;5.07;;;4.23;;
68050;SDS011;54839;51.364;7.246;2022-12-26T08:14:56;4.43;;;3.27;;
68050;SDS011;54839;51.364;7.246;2022-12-26T08:17:22;3.73;;;2.70;;
68050;SDS011;54839;51.364;7.246;2022-12-26T08:19:48;3.83;;;3.13;;
68050;SDS011;54839;51.364;7.246;2022-12-26T08:22:13;9.20;;;4.43;;
68050;SDS011;54839;51.364;7.246;2022-12-26T08:24:39;4.50;;;3.33;;
68050;SDS011;54839;51.364;7.246;2022-12-26T08:27:05;2.80;;;2.50;;
68050;SDS011;54839;51.364;7.246;2022-12-26T08:29:31;2.57;;;2.37;;
68050;SDS011;54839;51.364;7.246;2022-12-26T08:31:56;4.10;;;2.80;;
68050;SDS011;54839;51.364;7.246;2022-12-26T08:34:22;2.07;;;1.90;;
68050;SDS011;54839;51.364;7.246;2022-12-26T08:36:50;2.27;;;2.07;;
68050;SDS011;54839;51.364;7.246;2022-12-26T08:39:16;1.50;;;1.40;;
68050;SDS011;54839;51.364;7.246;2022-12-26T08:41:42;5.57;;;3.03;;
68050;SDS011;54839;51.364;7.246;2022-12-26T08:44:08;6.70;;;1.40;;
68050;SDS011;54839;51.364;7.246;2022-12-26T08:46:35;3.00;;;1.50;;
68050;SDS011;54839;51.364;7.246;2022-12-26T08:49:01;5.27;;;1.23;;
68050;SDS011;54839;51.364;7.246;2022-12-26T08:51:26;2.77;;;1.30;;
68050;SDS011;54839;51.364;7.246;2022-12-26T08:53:53;1.70;;;1.60;;
68050;SDS011;54839;51.364;7.246;2022-12-26T08:56:20;3.40;;;1.97;;
68050;SDS011;54839;51.364;7.246;2022-12-26T08:58:47;1.60;;;1.37;;
68050;SDS011;54839;51.364;7.246;2022-12-26T09:03:40;1.93;;;1.17;;
68050;SDS011;54839;51.364;7.246;2022-12-26T09:06:08;1.60;;;1.40;;
68050;SDS011;54839;51.364;7.246;2022-12-26T09:08:35;2.50;;;1.57;;
68050;SDS011;54839;51.364;7.246;2022-12-26T09:11:05;1.67;;;1.53;;
68050;SDS011;54839;51.364;7.246;2022-12-26T09:13:36;2.77;;;1.53;;
68050;SDS011;54839;51.364;7.246;2022-12-26T09:16:03;6.07;;;1.27;;
68050;SDS011;54839;51.364;7.246;2022-12-26T09:18:31;10.10;;;1.67;;
68050;SDS011;54839;51.364;7.246;2022-12-26T09:21:01;2.63;;;1.70;;
68050;SDS011;54839;51.364;7.246;2022-12-26T09:23:27;1.87;;;1.73;;
68050;SDS011;54839;51.364;7.246;2022-12-26T09:25:53;2.20;;;1.23;;
68050;SDS011;54839;51.364;7.246;2022-12-26T09:28:19;1.53;;;1.20;;
68050;SDS011;54839;51.364;7.246;2022-12-26T09:30:45;8.20;;;1.73;;
68050;SDS011;54839;51.364;7.246;2022-12-26T09:33:11;2.03;;;1.87;;
68050;SDS011;54839;51.364;7.246;2022-12-26T09:35:40;1.10;;;1.00;;
68050;SDS011;54839;51.364;7.246;2022-12-26T09:38:06;2.40;;;1.57;;
68050;SDS011;54839;51.364;7.246;2022-12-26T09:40:34;1.93;;;0.70;;
68050;SDS011;54839;51.364;7.246;2022-12-26T09:43:35;3.83;;;1.40;;
68050;SDS011;54839;51.364;7.246;2022-12-26T09:46:30;3.80;;;1.50;;
68050;SDS011;54839;51.364;7.246;2022-12-26T09:49:10;1.33;;;1.23;;
68050;SDS011;54839;51.364;7.246;2022-12-26T09:51:46;1.70;;;1.20;;
68050;SDS011;54839;51.364;7.246;2022-12-26T09:54:18;2.67;;;1.00;;
68050;SDS011;54839;51.364;7.246;2022-12-26T09:56:51;2.40;;;1.00;;
68050;SDS011;54839;51.364;7.246;2022-12-26T09:59:18;1.73;;;1.17;;
68050;SDS011;54839;51.364;7.246;2022-12-26T10:01:45;1.63;;;1.23;;
68050;SDS011;54839;51.364;7.246;2022-12-26T10:04:24;1.43;;;0.80;;
68050;SDS011;54839;51.364;7.246;2022-12-26T10:06:56;3.30;;;1.60;;
68050;SDS011;54839;51.364;7.246;2022-12-26T10:12:13;2.13;;;1.00;;
68050;SDS011;54839;51.364;7.246;2022-12-26T10:15:05;4.10;;;1.53;;
68050;SDS011;54839;51.364;7.246;2022-12-26T10:17:47;3.40;;;1.67;;
68050;SDS011;54839;51.364;7.246;2022-12-26T10:20:33;2.83;;;1.40;;
68050;SDS011;54839;51.364;7.246;2022-12-26T10:23:25;2.53;;;0.70;;
68050;SDS011;54839;51.364;7.246;2022-12-26T10:32:09;2.30;;;1.27;;
68050;SDS011;54839;51.364;7.246;2022-12-26T10:34:31;2.30;;;1.23;;
68050;SDS011;54839;51.364;7.246;2022-12-26T10:39:54;4.27;;;1.47;;
68050;SDS011;54839;51.364;7.246;2022-12-26T10:42:36;3.33;;;0.87;;
68050;SDS011;54839;51.364;7.246;2022-12-26T10:45:17;1.80;;;1.30;;
68050;SDS011;54839;51.364;7.246;2022-12-26T10:47:45;3.37;;;1.90;;
68050;SDS011;54839;51.364;7.246;2022-12-26T10:50:16;1.87;;;0.73;;
68050;SDS011;54839;51.364;7.246;2022-12-26T10:53:02;2.83;;;1.40;;
68050;SDS011;54839;51.364;7.246;2022-12-26T10:55:31;2.23;;;1.80;;
68050;SDS011;54839;51.364;7.246;2022-12-26T10:58:17;1.10;;;0.90;;
68050;SDS011;54839;51.364;7.246;2022-12-26T11:00:49;3.07;;;1.30;;
68050;SDS011;54839;51.364;7.246;2022-12-26T11:03:16;3.30;;;1.57;;
68050;SDS011;54839;51.364;7.246;2022-12-26T11:05:49;2.00;;;0.87;;
68050;SDS011;54839;51.364;7.246;2022-12-26T11:08:20;3.37;;;1.40;;
68050;SDS011;54839;51.364;7.246;2022-12-26T11:13:49;1.50;;;1.20;;
68050;SDS011;54839;51.364;7.246;2022-12-26T11:16:28;5.53;;;1.80;;
68050;SDS011;54839;51.364;7.246;2022-12-26T11:18:56;3.37;;;1.43;;
68050;SDS011;54839;51.364;7.246;2022-12-26T11:21:23;4.57;;;1.53;;
68050;SDS011;54839;51.364;7.246;2022-12-26T11:23:50;3.20;;;1.37;;
68050;SDS011;54839;51.364;7.246;2022-12-26T11:31:36;2.83;;;1.60;;
68050;SDS011;54839;51.364;7.246;2022-12-26T11:34:16;4.03;;;1.30;;
68050;SDS011;54839;51.364;7.246;2022-12-26T11:36:47;3.03;;;1.37;;
68050;SDS011;54839;51.364;7.246;2022-12-26T11:39:21;3.20;;;1.00;;
68050;SDS011;54839;51.364;7.246;2022-12-26T11:41:49;4.43;;;1.43;;
68050;SDS011;54839;51.364;7.246;2022-12-26T11:44:17;6.43;;;1.53;;
68050;SDS011;54839;51.364;7.246;2022-12-26T11:51:55;4.67;;;1.10;;
68050;SDS011;54839;51.364;7.246;2022-12-26T11:57:14;3.00;;;0.93;;
68050;SDS011;54839;51.364;7.246;2022-12-26T11:59:46;6.83;;;1.90;;
68050;SDS011;54839;51.364;7.246;2022-12-26T12:04:53;5.17;;;1.40;;
68050;SDS011;54839;51.364;7.246;2022-12-26T12:09:52;3.00;;;1.40;;
68050;SDS011;54839;51.364;7.246;2022-12-26T12:12:28;5.23;;;1.57;;
68050;SDS011;54839;51.364;7.246;2022-12-26T12:15:18;2.43;;;0.97;;
68050;SDS011;54839;51.364;7.246;2022-12-26T12:18:04;9.83;;;1.80;;
68050;SDS011;54839;51.364;7.246;2022-12-26T12:23:46;1.97;;;1.40;;
68050;SDS011;54839;51.364;7.246;2022-12-26T12:26:25;5.50;;;1.23;;
68050;SDS011;54839;51.364;7.246;2022-12-26T12:37:21;3.63;;;1.93;;
68050;SDS011;54839;51.364;7.246;2022-12-26T12:45:29;1.43;;;1.33;;
68050;SDS011;54839;51.364;7.246;2022-12-26T12:48:12;6.30;;;1.67;;
68050;SDS011;54839;51.364;7.246;2022-12-26T12:56:48;3.73;;;1.27;;
68050;SDS011;54839;51.364;7.246;2022-12-26T13:02:29;4.20;;;1.50;;
68050;SDS011;54839;51.364;7.246;2022-12-26T13:05:10;3.93;;;1.37;;
68050;SDS011;54839;51.364;7.246;2022-12-26T13:07:39;2.70;;;1.50;;
68050;SDS011;54839;51.364;7.246;2022-12-26T13:10:17;1.83;;;1.30;;
68050;SDS011;54839;51.364;7.246;2022-12-26T13:12:48;3.37;;;2.13;;
68050;SDS011;54839;51.364;7.246;2022-12-26T13:15:20;3.03;;;2.20;;
68050;SDS011;54839;51.364;7.246;2022-12-26T13:17:59;3.07;;;1.77;;
68050;SDS011;54839;51.364;7.246;2022-12-26T13:20:34;5.37;;;1.70;;
68050;SDS011;54839;51.364;7.246;2022-12-26T13:23:03;4.90;;;1.80;;
68050;SDS011;54839;51.364;7.246;2022-12-26T13:26:08;2.30;;;1.37;;
68050;SDS011;54839;51.364;7.246;2022-12-26T13:28:46;2.63;;;1.37;;
68050;SDS011;54839;51.364;7.246;2022-12-26T13:31:19;4.60;;;1.50;;
68050;SDS011;54839;51.364;7.246;2022-12-26T13:33:45;4.77;;;1.37;;
68050;SDS011;54839;51.364;7.246;2022-12-26T13:36:32;3.53;;;1.73;;
68050;SDS011;54839;51.364;7.246;2022-12-26T13:39:12;2.90;;;1.40;;
68050;SDS011;54839;51.364;7.246;2022-12-26T13:41:47;2.83;;;1.70;;
68050;SDS011;54839;51.364;7.246;2022-12-26T13:44:37;2.30;;;0.90;;
68050;SDS011;54839;51.364;7.246;2022-12-26T13:47:03;4.67;;;1.70;;
68050;SDS011;54839;51.364;7.246;2022-12-26T13:49:36;4.83;;;1.73;;
68050;SDS011;54839;51.364;7.246;2022-12-26T14:00:03;4.93;;;1.53;;
68050;SDS011;54839;51.364;7.246;2022-12-26T14:02:56;4.43;;;1.43;;
68050;SDS011;54839;51.364;7.246;2022-12-26T14:11:27;3.17;;;1.20;;
68050;SDS011;54839;51.364;7.246;2022-12-26T14:20:00;2.47;;;1.20;;
68050;SDS011;54839;51.364;7.246;2022-12-26T14:25:07;1.93;;;1.10;;
68050;SDS011;54839;51.364;7.246;2022-12-26T14:31:04;6.13;;;1.47;;
68050;SDS011;54839;51.364;7.246;2022-12-26T14:33:59;1.97;;;1.37;;
68050;SDS011;54839;51.364;7.246;2022-12-26T14:36:41;3.27;;;1.60;;
68050;SDS011;54839;51.364;7.246;2022-12-26T14:42:26;4.07;;;1.90;;
68050;SDS011;54839;51.364;7.246;2022-12-26T14:45:36;9.93;;;2.20;;
68050;SDS011;54839;51.364;7.246;2022-12-26T14:47:58;2.43;;;1.93;;
68050;SDS011;54839;51.364;7.246;2022-12-26T14:58:36;9.47;;;8.03;;
68050;SDS011;54839;51.364;7.246;2022-12-26T15:03:40;10.43;;;7.77;;
68050;SDS011;54839;51.364;7.246;2022-12-26T15:20:10;13.10;;;7.50;;
68050;SDS011;54839;51.364;7.246;2022-12-26T15:28:13;11.90;;;6.90;;
68050;SDS011;54839;51.364;7.246;2022-12-26T15:33:37;8.20;;;6.70;;
68050;SDS011;54839;51.364;7.246;2022-12-26T15:36:14;10.07;;;7.00;;
68050;SDS011;54839;51.364;7.246;2022-12-26T15:38:58;18.10;;;6.73;;
68050;SDS011;54839;51.364;7.246;2022-12-26T15:41:45;15.00;;;7.23;;
68050;SDS011;54839;51.364;7.246;2022-12-26T15:44:18;13.73;;;6.37;;
68050;SDS011;54839;51.364;7.246;2022-12-26T15:49:28;10.47;;;6.30;;
68050;SDS011;54839;51.364;7.246;2022-12-26T16:00:48;12.23;;;7.20;;
68050;SDS011;54839;51.364;7.246;2022-12-26T16:03:23;12.77;;;7.97;;
68050;SDS011;54839;51.364;7.246;2022-12-26T16:11:29;10.33;;;6.73;;
68050;SDS011;54839;51.364;7.246;2022-12-26T16:14:09;17.03;;;7.10;;
68050;SDS011;54839;51.364;7.246;2022-12-26T16:16:47;11.03;;;6.50;;
68050;SDS011;54839;51.364;7.246;2022-12-26T16:19:25;8.17;;;4.70;;
68050;SDS011;54839;51.364;7.246;2022-12-26T16:21:57;6.33;;;4.93;;
68050;SDS011;54839;51.364;7.246;2022-12-26T16:24:47;10.30;;;4.57;;
68050;SDS011;54839;51.364;7.246;2022-12-26T16:27:17;11.20;;;6.33;;
68050;SDS011;54839;51.364;7.246;2022-12-26T16:29:50;9.83;;;3.23;;
68050;SDS011;54839;51.364;7.246;2022-12-26T16:32:30;10.30;;;3.13;;
68050;SDS011;54839;51.364;7.246;2022-12-26T16:34:59;13.40;;;5.20;;
68050;SDS011;54839;51.364;7.246;2022-12-26T16:37:26;10.70;;;4.30;;
68050;SDS011;54839;51.364;7.246;2022-12-26T16:40:14;9.10;;;3.37;;
68050;SDS011;54839;51.364;7.246;2022-12-26T16:42:44;7.67;;;3.40;;
68050;SDS011;54839;51.364;7.246;2022-12-26T16:45:18;8.10;;;3.10;;
68050;SDS011;54839;51.364;7.246;2022-12-26T16:47:45;5.13;;;2.40;;
68050;SDS011;54839;51.364;7.246;2022-12-26T16:50:29;6.63;;;3.27;;
68050;SDS011;54839;51.364;7.246;2022-12-26T16:53:01;3.30;;;1.40;;
68050;SDS011;54839;51.364;7.246;2022-12-26T16:55:35;6.70;;;3.73;;
68050;SDS011;54839;51.364;7.246;2022-12-26T16:58:02;10.00;;;3.00;;
68050;SDS011;54839;51.364;7.246;2022-12-26T17:00:36;8.80;;;2.17;;
68050;SDS011;54839;51.364;7.246;2022-12-26T17:03:02;7.77;;;2.00;;
68050;SDS011;54839;51.364;7.246;2022-12-26T17:05:35;4.33;;;1.83;;
68050;SDS011;54839;51.364;7.246;2022-12-26T17:08:02;3.97;;;1.87;;
68050;SDS011;54839;51.364;7.246;2022-12-26T17:10:29;3.27;;;2.33;;
68050;SDS011;54839;51.364;7.246;2022-12-26T17:13:00;3.00;;;1.43;;
68050;SDS011;54839;51.364;7.246;2022-12-26T17:15:31;2.17;;;1.70;;
68050;SDS011;54839;51.364;7.246;2022-12-26T17:17:59;4.73;;;3.50;;
68050;SDS011;54839;51.364;7.246;2022-12-26T17:26:50;2.30;;;2.10;;
68050;SDS011;54839;51.364;7.246;2022-12-26T17:29:44;3.17;;;1.77;;
68050;SDS011;54839;51.364;7.246;2022-12-26T17:32:18;5.13;;;2.17;;
68050;SDS011;54839;51.364;7.246;2022-12-26T17:34:49;9.53;;;3.17;;
68050;SDS011;54839;51.364;7.246;2022-12-26T17:37:17;4.10;;;1.83;;
68050;SDS011;54839;51.364;7.246;2022-12-26T17:39:50;6.50;;;2.37;;
68050;SDS011;54839;51.364;7.246;2022-12-26T17:42:24;4.17;;;2.13;;
68050;SDS011;54839;51.364;7.246;2022-12-26T17:44:49;2.53;;;1.63;;
68050;SDS011;54839;51.364;7.246;2022-12-26T17:47:19;2.70;;;2.00;;
68050;SDS011;54839;51.364;7.246;2022-12-26T17:49:48;4.53;;;2.40;;
68050;SDS011;54839;51.364;7.246;2022-12-26T17:52:17;4.87;;;2.17;;
68050;SDS011;54839;51.364;7.246;2022-12-26T17:54:44;3.60;;;2.23;;
68050;SDS011;54839;51.364;7.246;2022-12-26T17:57:17;3.17;;;2.10;;
68050;SDS011;54839;51.364;7.246;2022-12-26T17:59:44;2.70;;;2.07;;
68050;SDS011;54839;51.364;7.246;2022-12-26T18:02:11;8.10;;;3.30;;
68050;SDS011;54839;51.364;7.246;2022-12-26T18:04:36;6.77;;;2.10;;
68050;SDS011;54839;51.364;7.246;2022-12-26T18:07:03;6.67;;;1.97;;
68050;SDS011;54839;51.364;7.246;2022-12-26T18:09:29;1.70;;;1.57;;
68050;SDS011;54839;51.364;7.246;2022-12-26T18:11:55;1.67;;;1.57;;
68050;SDS011;54839;51.364;7.246;2022-12-26T18:14:20;9.83;;;2.10;;
68050;SDS011;54839;51.364;7.246;2022-12-26T18:16:47;7.13;;;2.13;;
68050;SDS011;54839;51.364;7.246;2022-12-26T18:19:15;8.10;;;2.07;;
68050;SDS011;54839;51.364;7.246;2022-12-26T18:21:43;4.90;;;1.57;;
68050;SDS011;54839;51.364;7.246;2022-12-26T18:24:09;5.77;;;2.07;;
68050;SDS011;54839;51.364;7.246;2022-12-26T18:26:35;1.97;;;1.50;;
68050;SDS011;54839;51.364;7.246;2022-12-26T18:29:01;5.77;;;2.50;;
68050;SDS011;54839;51.364;7.246;2022-12-26T18:31:27;2.90;;;1.97;;